createdAt,value
2019-03-19T00:01:19.582Z,2.81
2019-03-19T00:03:23.320Z,2.76
2019-03-19T00:05:27.136Z,2.71
2019-03-19T00:07:30.855Z,2.66
2019-03-19T00:09:34.608Z,2.62
2019-03-19T00:11:38.317Z,2.58
2019-03-19T00:13:42.052Z,2.56
2019-03-19T00:15:45.868Z,2.55
2019-03-19T00:17:49.656Z,2.53
2019-03-19T00:19:53.385Z,2.48
2019-03-19T00:21:57.184Z,2.44
2019-03-19T00:24:00.898Z,2.38
2019-03-19T00:26:04.693Z,2.29
2019-03-19T00:28:08.404Z,2.22
2019-03-19T00:30:12.584Z,2.15
2019-03-19T00:32:16.289Z,2.09
2019-03-19T00:34:19.991Z,2.04
2019-03-19T00:36:23.716Z,2.00
2019-03-19T00:38:27.427Z,1.99
2019-03-19T00:40:31.220Z,1.96
2019-03-19T00:42:34.925Z,1.92
2019-03-19T00:44:38.628Z,1.89
2019-03-19T00:46:42.378Z,1.83
2019-03-19T00:48:46.103Z,1.77
2019-03-19T00:50:49.925Z,1.73
2019-03-19T00:52:53.645Z,1.65
2019-03-19T00:54:57.382Z,1.55
2019-03-19T00:57:01.119Z,1.48
2019-03-19T00:59:04.986Z,1.44
2019-03-19T01:01:08.774Z,1.40
2019-03-19T01:03:12.501Z,1.38
2019-03-19T01:05:16.338Z,1.37
2019-03-19T01:07:20.052Z,1.36
2019-03-19T01:09:23.751Z,1.37
2019-03-19T01:11:27.558Z,1.32
2019-03-19T01:13:31.643Z,1.24
2019-03-19T01:15:35.437Z,1.20
2019-03-19T01:17:39.222Z,1.15
2019-03-19T01:19:42.943Z,1.08
2019-03-19T01:21:46.667Z,1.05
2019-03-19T01:23:50.399Z,1.04
2019-03-19T01:25:55.524Z,1.04
2019-03-19T01:27:59.604Z,1.04
2019-03-19T01:30:03.611Z,1.01
2019-03-19T01:32:07.349Z,0.98
2019-03-19T01:34:11.082Z,0.96
2019-03-19T01:36:14.802Z,0.93
2019-03-19T01:38:18.500Z,0.89
2019-03-19T01:40:22.209Z,0.82
2019-03-19T01:42:25.959Z,0.77
2019-03-19T01:44:29.690Z,0.78
2019-03-19T01:46:33.425Z,0.78
2019-03-19T01:48:37.143Z,0.80
2019-03-19T01:50:40.881Z,0.84
2019-03-19T01:52:44.732Z,0.87
2019-03-19T01:54:48.539Z,0.93
2019-03-19T01:56:52.270Z,1.01
2019-03-19T01:58:56.001Z,1.14
2019-03-19T02:00:59.794Z,1.21
2019-03-19T02:03:03.538Z,1.28
2019-03-19T02:05:07.429Z,1.36
2019-03-19T02:07:11.144Z,1.42
2019-03-19T02:09:14.851Z,1.46
2019-03-19T02:11:18.581Z,1.50
2019-03-19T02:13:22.366Z,1.54
2019-03-19T02:15:26.089Z,1.58
2019-03-19T02:17:29.811Z,1.61
2019-03-19T02:19:33.522Z,1.62
2019-03-19T02:21:37.264Z,1.63
2019-03-19T02:23:40.967Z,1.66
2019-03-19T02:25:44.677Z,1.69
2019-03-19T02:27:48.487Z,1.68
2019-03-19T02:29:52.180Z,1.66
2019-03-19T02:31:55.926Z,1.64
2019-03-19T02:33:59.670Z,1.64
2019-03-19T02:36:03.344Z,1.63
2019-03-19T02:38:07.475Z,1.67
2019-03-19T02:40:11.272Z,1.74
2019-03-19T02:42:15.014Z,1.78
2019-03-19T02:44:18.727Z,1.80
2019-03-19T02:46:22.467Z,1.82
2019-03-19T02:48:26.269Z,1.83
2019-03-19T02:50:30.005Z,1.86
2019-03-19T02:52:33.747Z,1.89
2019-03-19T02:54:37.467Z,1.90
2019-03-19T02:56:41.199Z,1.85
2019-03-19T02:58:44.914Z,1.80
2019-03-19T03:00:48.633Z,1.82
2019-03-19T03:02:52.375Z,1.86
2019-03-19T03:04:56.076Z,1.88
2019-03-19T03:06:59.896Z,1.89
2019-03-19T03:09:05.585Z,1.89
2019-03-19T03:11:09.290Z,1.82
2019-03-19T03:13:13.100Z,1.71
2019-03-19T03:15:17.654Z,1.61
2019-03-19T03:17:21.400Z,1.54
2019-03-19T03:19:25.123Z,1.48
2019-03-19T03:21:28.868Z,1.44
2019-03-19T03:23:32.565Z,1.43
2019-03-19T03:25:36.525Z,1.43
2019-03-19T03:27:40.418Z,1.43
2019-03-19T03:29:44.195Z,1.39
2019-03-19T03:31:47.948Z,1.34
2019-03-19T03:33:51.693Z,1.23
2019-03-19T03:35:55.445Z,1.16
2019-03-19T03:37:59.153Z,1.14
2019-03-19T03:40:03.005Z,1.11
2019-03-19T03:42:06.814Z,1.04
2019-03-19T03:44:10.561Z,1.00
2019-03-19T03:46:14.250Z,0.98
2019-03-19T03:48:17.990Z,0.92
2019-03-19T03:50:21.784Z,0.86
2019-03-19T03:52:25.424Z,0.78
2019-03-19T03:54:29.154Z,0.74
2019-03-19T03:56:32.911Z,0.72
2019-03-19T03:58:36.648Z,0.70
2019-03-19T04:00:40.420Z,0.64
2019-03-19T04:02:45.005Z,0.59
2019-03-19T04:04:48.821Z,0.55
2019-03-19T04:06:52.523Z,0.54
2019-03-19T04:08:56.249Z,0.51
2019-03-19T04:11:00.017Z,0.48
2019-03-19T04:13:03.893Z,0.48
2019-03-19T04:15:08.892Z,0.46
2019-03-19T04:17:12.606Z,0.47
2019-03-19T04:19:16.345Z,0.49
2019-03-19T04:21:20.044Z,0.51
2019-03-19T04:23:23.858Z,0.54
2019-03-19T04:25:27.576Z,0.54
2019-03-19T04:27:31.280Z,0.54
2019-03-19T04:29:35.148Z,0.54
2019-03-19T04:31:38.864Z,0.57
2019-03-19T04:33:42.781Z,0.58
2019-03-19T04:35:46.519Z,0.55
2019-03-19T04:37:50.218Z,0.53
2019-03-19T04:39:53.980Z,0.52
2019-03-19T04:41:57.723Z,0.53
2019-03-19T04:44:01.584Z,0.54
2019-03-19T04:46:05.312Z,0.54
2019-03-19T04:48:09.023Z,0.49
2019-03-19T04:50:13.044Z,0.40
2019-03-19T04:52:16.767Z,0.35
2019-03-19T04:54:20.532Z,0.32
2019-03-19T04:56:24.243Z,0.30
2019-03-19T04:58:28.015Z,0.30
2019-03-19T05:00:31.745Z,0.29
2019-03-19T05:02:35.554Z,0.29
2019-03-19T05:04:39.284Z,0.33
2019-03-19T05:06:43.005Z,0.31
2019-03-19T05:08:46.733Z,0.28
2019-03-19T05:10:50.455Z,0.25
2019-03-19T05:12:54.214Z,0.24
2019-03-19T05:14:57.935Z,0.23
2019-03-19T05:17:01.632Z,0.21
2019-03-19T05:19:05.564Z,0.19
2019-03-19T05:21:09.264Z,0.18
2019-03-19T05:23:12.961Z,0.19
2019-03-19T05:25:16.693Z,0.15
2019-03-19T05:27:20.720Z,0.11
2019-03-19T05:29:24.471Z,0.05
2019-03-19T05:31:28.199Z,0.02
2019-03-19T05:33:31.935Z,0.00
2019-03-19T05:35:35.657Z,0.00
2019-03-19T05:37:39.457Z,-0.03
2019-03-19T05:39:43.198Z,-0.03
2019-03-19T05:41:46.917Z,-0.02
2019-03-19T05:43:50.621Z,0.02
2019-03-19T05:45:54.455Z,0.09
2019-03-19T05:47:58.275Z,0.14
2019-03-19T05:50:02.079Z,0.21
2019-03-19T05:52:07.915Z,0.24
2019-03-19T05:54:12.766Z,0.27
2019-03-19T05:56:16.798Z,0.29
2019-03-19T05:58:20.584Z,0.32
2019-03-19T06:00:25.395Z,0.37
2019-03-19T06:02:30.192Z,0.43
2019-03-19T06:04:34.017Z,0.47
2019-03-19T06:06:37.804Z,0.53
2019-03-19T06:08:41.606Z,0.57
2019-03-19T06:10:45.416Z,0.66
2019-03-19T06:12:49.314Z,0.74
2019-03-19T06:14:53.172Z,0.80
2019-03-19T06:16:56.920Z,0.88
2019-03-19T06:19:00.735Z,0.93
2019-03-19T06:21:04.765Z,0.98
2019-03-19T06:23:09.601Z,1.02
2019-03-19T06:25:14.195Z,1.06
2019-03-19T06:27:17.990Z,1.10
2019-03-19T06:29:21.800Z,1.14
2019-03-19T06:31:25.598Z,1.15
2019-03-19T06:33:29.378Z,1.15
2019-03-19T06:35:33.332Z,1.17
2019-03-19T06:37:37.108Z,1.20
2019-03-19T06:39:40.923Z,1.21
2019-03-19T06:41:44.815Z,1.21
2019-03-19T06:43:48.683Z,1.22
2019-03-19T06:45:52.526Z,1.24
2019-03-19T06:47:56.321Z,1.30
2019-03-19T06:50:00.145Z,1.57
2019-03-19T06:52:04.024Z,2.33
2019-03-19T06:54:07.829Z,3.40
2019-03-19T06:56:14.798Z,4.01
2019-03-19T06:58:18.206Z,4.30
2019-03-19T07:00:22.765Z,4.52
2019-03-19T07:02:26.534Z,4.73
2019-03-19T07:04:30.327Z,5.92
2019-03-19T07:06:34.137Z,6.59
2019-03-19T07:08:38.948Z,7.00
2019-03-19T07:10:42.819Z,7.67
2019-03-19T07:12:46.721Z,7.97
2019-03-19T07:14:50.508Z,7.68
2019-03-19T07:16:54.304Z,7.02
2019-03-19T07:18:58.153Z,7.20
2019-03-19T07:21:01.995Z,7.34
2019-03-19T07:23:05.910Z,8.81
2019-03-19T07:25:09.801Z,10.36
2019-03-19T07:27:14.633Z,11.60
2019-03-19T07:29:19.483Z,12.76
2019-03-19T07:31:30.731Z,13.71
2019-03-19T07:33:29.933Z,14.17
2019-03-19T07:35:33.876Z,14.40
2019-03-19T07:37:37.655Z,14.46
2019-03-19T07:39:41.435Z,14.44
2019-03-19T07:41:45.251Z,14.38
2019-03-19T07:43:49.029Z,15.01
2019-03-19T07:45:53.945Z,15.96
2019-03-19T07:47:57.867Z,16.61
2019-03-19T07:50:01.679Z,17.47
2019-03-19T07:52:05.656Z,17.10
2019-03-19T07:54:09.475Z,15.51
2019-03-19T07:56:13.335Z,14.74
2019-03-19T07:58:18.128Z,14.00
2019-03-19T08:00:22.127Z,13.66
2019-03-19T08:02:25.954Z,15.25
2019-03-19T08:04:30.797Z,16.91
2019-03-19T08:06:34.596Z,18.22
2019-03-19T08:08:38.475Z,19.05
2019-03-19T08:10:42.350Z,19.54
2019-03-19T08:12:46.266Z,19.94
2019-03-19T08:14:50.101Z,20.59
2019-03-19T08:16:53.895Z,21.18
2019-03-19T08:18:57.737Z,21.29
2019-03-19T08:21:01.503Z,21.11
2019-03-19T08:23:05.356Z,21.32
2019-03-19T08:25:09.524Z,21.84
2019-03-19T08:27:13.318Z,22.39
2019-03-19T08:29:17.231Z,22.80
2019-03-19T08:31:23.079Z,23.20
2019-03-19T08:33:26.874Z,23.63
2019-03-19T08:35:30.663Z,23.78
2019-03-19T08:37:35.505Z,23.89
2019-03-19T08:39:39.309Z,23.74
2019-03-19T08:41:44.145Z,23.83
2019-03-19T08:43:47.949Z,24.01
2019-03-19T08:45:51.833Z,24.11
2019-03-19T08:47:55.709Z,24.24
2019-03-19T08:49:59.555Z,24.24
2019-03-19T08:52:04.459Z,24.48
2019-03-19T08:54:08.267Z,24.63
2019-03-19T08:56:13.192Z,24.62
2019-03-19T08:58:17.034Z,24.36
2019-03-19T09:00:20.883Z,24.36
2019-03-19T09:02:24.801Z,24.51
2019-03-19T09:04:28.701Z,24.72
2019-03-19T09:06:32.546Z,24.84
2019-03-19T09:08:37.399Z,24.84
2019-03-19T09:10:42.201Z,24.77
2019-03-19T09:12:48.228Z,24.77
2019-03-19T09:14:51.629Z,24.80
2019-03-19T09:16:55.544Z,24.73
2019-03-19T09:18:59.368Z,24.69
2019-03-19T09:21:04.258Z,24.73
2019-03-19T09:23:08.093Z,24.76
2019-03-19T09:25:12.139Z,24.72
2019-03-19T09:27:16.014Z,24.54
2019-03-19T09:29:20.944Z,24.18
2019-03-19T09:31:24.711Z,23.78
2019-03-19T09:33:28.545Z,23.46
2019-03-19T09:35:32.385Z,23.66
2019-03-19T09:37:44.113Z,23.99
2019-03-19T09:39:43.906Z,24.23
2019-03-19T09:41:47.736Z,24.35
2019-03-19T09:43:53.464Z,24.79
2019-03-19T09:45:58.148Z,25.02
2019-03-19T09:48:02.071Z,24.89
2019-03-19T09:50:06.308Z,25.11
2019-03-19T09:52:10.153Z,25.37
2019-03-19T09:54:14.043Z,25.64
2019-03-19T09:56:17.857Z,24.84
2019-03-19T09:58:21.725Z,23.47
2019-03-19T10:00:25.675Z,22.18
2019-03-19T10:02:29.651Z,21.98
2019-03-19T10:04:33.531Z,22.60
2019-03-19T10:06:37.364Z,23.47
2019-03-19T10:08:41.158Z,24.22
2019-03-19T10:10:44.970Z,24.06
2019-03-19T10:12:48.823Z,24.00
2019-03-19T10:14:52.674Z,23.97
2019-03-19T10:16:56.472Z,23.87
2019-03-19T10:19:00.320Z,22.96
2019-03-19T10:21:04.169Z,21.88
2019-03-19T10:23:08.007Z,21.57
2019-03-19T10:25:13.052Z,22.09
2019-03-19T10:27:19.628Z,22.77
2019-03-19T10:29:23.611Z,23.18
2019-03-19T10:31:27.379Z,23.29
2019-03-19T10:33:33.289Z,22.31
2019-03-19T10:35:37.028Z,21.34
2019-03-19T10:37:40.922Z,21.21
2019-03-19T10:39:44.725Z,21.92
2019-03-19T10:41:48.659Z,21.67
2019-03-19T10:43:53.503Z,21.09
2019-03-19T10:45:58.333Z,20.11
2019-03-19T10:48:02.255Z,19.48
2019-03-19T10:50:08.594Z,19.65
2019-03-19T10:52:13.484Z,19.63
2019-03-19T10:54:17.328Z,19.85
2019-03-19T10:56:21.141Z,20.89
2019-03-19T10:58:27.007Z,21.68
2019-03-19T11:00:30.895Z,22.73
2019-03-19T11:02:36.788Z,23.95
2019-03-19T11:04:40.643Z,24.68
2019-03-19T11:06:44.425Z,24.97
2019-03-19T11:08:49.271Z,24.13
2019-03-19T11:10:54.096Z,23.34
2019-03-19T11:13:00.982Z,23.46
2019-03-19T11:15:07.042Z,23.83
2019-03-19T11:17:10.802Z,24.59
2019-03-19T11:19:14.626Z,25.01
2019-03-19T11:21:18.513Z,24.57
2019-03-19T11:23:22.351Z,24.49
2019-03-19T11:25:26.155Z,23.99
2019-03-19T11:27:30.971Z,23.11
2019-03-19T11:29:35.848Z,22.06
2019-03-19T11:31:39.703Z,20.22
2019-03-19T11:33:43.522Z,20.22
2019-03-19T11:35:47.296Z,19.49
2019-03-19T11:37:51.290Z,18.56
2019-03-19T11:39:56.168Z,18.13
2019-03-19T11:42:00.133Z,17.73
2019-03-19T11:44:04.349Z,17.26
2019-03-19T11:46:08.323Z,16.93
2019-03-19T11:48:12.266Z,16.79
2019-03-19T11:50:20.774Z,16.74
2019-03-19T11:52:25.596Z,17.41
2019-03-19T11:54:29.450Z,18.58
2019-03-19T11:56:36.440Z,19.95
2019-03-19T11:58:40.195Z,21.35
2019-03-19T12:00:46.433Z,22.03
2019-03-19T12:02:50.304Z,22.01
2019-03-19T12:04:54.068Z,22.12
2019-03-19T12:06:57.928Z,22.55
2019-03-19T12:09:01.883Z,23.41
2019-03-19T12:11:06.839Z,23.81
2019-03-19T12:13:10.724Z,24.40
2019-03-19T12:15:15.676Z,24.89
2019-03-19T12:17:19.452Z,24.97
2019-03-19T12:19:24.280Z,25.92
2019-03-19T12:21:28.076Z,26.45
2019-03-19T12:23:31.881Z,26.16
2019-03-19T12:25:39.668Z,25.10
2019-03-19T12:27:43.492Z,24.43
2019-03-19T12:29:47.275Z,23.99
2019-03-19T12:31:51.109Z,23.22
2019-03-19T12:33:54.887Z,22.22
2019-03-19T12:35:58.684Z,21.28
2019-03-19T12:38:03.531Z,21.67
2019-03-19T12:40:10.241Z,22.45
2019-03-19T12:42:14.090Z,23.36
2019-03-19T12:44:17.914Z,24.35
2019-03-19T12:46:21.679Z,25.20
2019-03-19T12:48:25.554Z,25.58
2019-03-19T12:50:29.385Z,25.20
2019-03-19T12:52:33.230Z,24.31
2019-03-19T12:54:37.997Z,23.64
2019-03-19T12:56:42.378Z,23.14
2019-03-19T12:58:47.253Z,23.13
2019-03-19T13:00:51.075Z,23.20
2019-03-19T13:02:55.995Z,23.25
2019-03-19T13:04:59.788Z,23.06
2019-03-19T13:07:03.695Z,22.78
2019-03-19T13:09:08.191Z,22.39
2019-03-19T13:11:12.246Z,21.85
2019-03-19T13:13:16.080Z,21.38
2019-03-19T13:15:21.000Z,21.00
2019-03-19T13:17:24.801Z,20.81
2019-03-19T13:19:28.574Z,20.69
2019-03-19T13:21:33.608Z,20.63
2019-03-19T13:23:39.478Z,20.50
2019-03-19T13:25:43.356Z,20.24
2019-03-19T13:27:47.264Z,19.81
2019-03-19T13:29:51.128Z,19.39
2019-03-19T13:31:54.968Z,18.95
2019-03-19T13:33:58.788Z,18.66
2019-03-19T13:36:03.997Z,18.37
2019-03-19T13:38:08.846Z,18.19
2019-03-19T13:40:14.324Z,18.25
2019-03-19T13:42:19.093Z,18.41
2019-03-19T13:44:23.978Z,18.23
2019-03-19T13:46:27.747Z,17.82
2019-03-19T13:48:31.565Z,17.55
2019-03-19T13:50:35.403Z,17.65
2019-03-19T13:52:39.410Z,17.95
2019-03-19T13:54:43.333Z,18.25
2019-03-19T13:56:47.188Z,18.67
2019-03-19T13:58:53.022Z,18.97
2019-03-19T14:00:56.825Z,19.14
2019-03-19T14:03:00.711Z,19.37
2019-03-19T14:05:05.405Z,19.47
2019-03-19T14:07:10.207Z,19.37
2019-03-19T14:09:14.141Z,19.13
2019-03-19T14:11:18.114Z,18.75
2019-03-19T14:13:23.935Z,18.44
2019-03-19T14:15:27.824Z,18.12
2019-03-19T14:17:32.661Z,17.80
2019-03-19T14:19:36.499Z,17.57
2019-03-19T14:21:41.388Z,17.41
2019-03-19T14:23:45.381Z,17.24
2019-03-19T14:25:49.226Z,17.06
2019-03-19T14:27:53.004Z,16.85
2019-03-19T14:29:57.957Z,16.70
2019-03-19T14:32:03.934Z,16.43
2019-03-19T14:34:07.311Z,16.06
2019-03-19T14:36:11.124Z,16.00
2019-03-19T14:38:15.896Z,16.10
2019-03-19T14:40:19.833Z,16.10
2019-03-19T14:42:24.768Z,15.95
2019-03-19T14:44:28.558Z,15.78
2019-03-19T14:46:32.364Z,15.72
2019-03-19T14:48:37.210Z,15.52
2019-03-19T14:50:41.083Z,15.37
2019-03-19T14:52:45.009Z,15.32
2019-03-19T14:54:48.832Z,15.28
2019-03-19T14:56:52.696Z,15.13
2019-03-19T14:58:56.538Z,14.91
2019-03-19T15:01:01.357Z,14.79
2019-03-19T15:03:05.317Z,14.69
2019-03-19T15:05:10.753Z,14.49
2019-03-19T15:07:14.611Z,14.39
2019-03-19T15:09:19.405Z,14.38
2019-03-19T15:11:23.396Z,14.22
2019-03-19T15:13:27.289Z,13.92
2019-03-19T15:15:31.125Z,13.63
2019-03-19T15:17:34.946Z,13.67
2019-03-19T15:19:38.712Z,13.65
2019-03-19T15:21:43.466Z,13.60
2019-03-19T15:23:47.434Z,13.60
2019-03-19T15:25:51.274Z,13.68
2019-03-19T15:27:55.101Z,13.67
2019-03-19T15:29:58.850Z,13.74
2019-03-19T15:32:03.744Z,13.79
2019-03-19T15:34:07.559Z,13.83
2019-03-19T15:36:11.343Z,13.79
2019-03-19T15:38:16.158Z,13.70
2019-03-19T15:40:21.067Z,13.67
2019-03-19T15:42:24.878Z,13.65
2019-03-19T15:44:28.652Z,13.54
2019-03-19T15:46:32.498Z,13.47
2019-03-19T15:48:37.305Z,13.38
2019-03-19T15:50:41.154Z,13.28
2019-03-19T15:52:45.034Z,13.25
2019-03-19T15:54:49.924Z,13.27
2019-03-19T15:56:53.776Z,13.27
2019-03-19T15:58:57.669Z,13.24
2019-03-19T16:01:01.457Z,13.24
2019-03-19T16:03:05.334Z,13.30
2019-03-19T16:05:10.020Z,13.23
2019-03-19T16:07:13.775Z,13.16
2019-03-19T16:09:17.585Z,13.03
2019-03-19T16:11:21.376Z,12.84
2019-03-19T16:13:25.249Z,12.79
2019-03-19T16:15:29.170Z,12.79
2019-03-19T16:17:33.004Z,12.77
2019-03-19T16:19:37.870Z,12.69
2019-03-19T16:21:41.632Z,12.70
2019-03-19T16:23:45.463Z,12.68
2019-03-19T16:25:49.347Z,12.67
2019-03-19T16:27:55.196Z,12.63
2019-03-19T16:29:59.024Z,12.64
2019-03-19T16:32:03.887Z,12.73
2019-03-19T16:34:07.728Z,12.74
2019-03-19T16:36:12.576Z,12.73
2019-03-19T16:38:16.375Z,12.62
2019-03-19T16:40:21.229Z,12.47
2019-03-19T16:42:25.029Z,12.41
2019-03-19T16:44:29.815Z,12.39
2019-03-19T16:46:33.627Z,12.27
2019-03-19T16:48:37.436Z,12.20
2019-03-19T16:50:41.199Z,12.15
2019-03-19T16:52:45.065Z,12.04
2019-03-19T16:54:48.815Z,11.99
2019-03-19T16:56:52.605Z,12.03
2019-03-19T16:58:56.475Z,12.10
2019-03-19T17:01:00.346Z,12.04
2019-03-19T17:03:04.182Z,11.90
2019-03-19T17:05:08.249Z,11.78
2019-03-19T17:07:12.109Z,11.65
2019-03-19T17:09:15.960Z,11.55
2019-03-19T17:11:19.764Z,11.49
2019-03-19T17:13:24.588Z,11.45
2019-03-19T17:15:28.378Z,11.39
2019-03-19T17:17:32.276Z,11.38
2019-03-19T17:19:37.021Z,11.37
2019-03-19T17:21:40.818Z,11.40
2019-03-19T17:23:44.642Z,11.37
2019-03-19T17:25:48.436Z,11.31
2019-03-19T17:27:52.275Z,11.23
2019-03-19T17:29:56.064Z,11.19
2019-03-19T17:32:00.851Z,11.24
2019-03-19T17:34:04.817Z,11.36
2019-03-19T17:36:08.716Z,11.40
2019-03-19T17:38:13.571Z,11.34
2019-03-19T17:40:17.550Z,11.34
2019-03-19T17:42:21.332Z,11.34
2019-03-19T17:44:27.174Z,11.24
2019-03-19T17:46:31.992Z,11.13
2019-03-19T17:48:39.951Z,11.05
2019-03-19T17:50:43.872Z,10.97
2019-03-19T17:52:50.405Z,10.87
2019-03-19T17:54:54.338Z,10.90
2019-03-19T17:56:59.074Z,10.71
2019-03-19T17:59:03.979Z,10.44
2019-03-19T18:01:17.106Z,10.19
2019-03-19T18:03:13.532Z,9.99
2019-03-19T18:05:17.365Z,9.81
2019-03-19T18:07:24.729Z,9.48
2019-03-19T18:09:28.576Z,9.30
2019-03-19T18:11:33.384Z,9.17
2019-03-19T18:13:38.199Z,9.14
2019-03-19T18:15:42.023Z,9.00
2019-03-19T18:17:45.945Z,8.86
2019-03-19T18:19:51.783Z,8.70
2019-03-19T18:21:55.536Z,8.57
2019-03-19T18:23:59.389Z,8.48
2019-03-19T18:26:09.147Z,8.52
2019-03-19T18:28:12.920Z,8.44
2019-03-19T18:30:21.959Z,8.33
2019-03-19T18:32:34.633Z,8.33
2019-03-19T18:34:32.262Z,8.33
2019-03-19T18:36:36.037Z,8.36
2019-03-19T18:38:39.815Z,8.38
2019-03-19T18:40:43.655Z,8.47
2019-03-19T18:42:47.469Z,8.53
2019-03-19T18:44:54.613Z,8.64
2019-03-19T18:46:58.418Z,8.60
2019-03-19T18:49:02.201Z,8.55
2019-03-19T18:51:07.071Z,8.63
2019-03-19T18:53:11.865Z,8.80
2019-03-19T18:55:16.849Z,8.77
2019-03-19T18:57:21.610Z,8.76
2019-03-19T18:59:27.393Z,8.63
2019-03-19T19:01:31.180Z,8.38
2019-03-19T19:03:34.974Z,8.14
2019-03-19T19:05:38.801Z,7.99
2019-03-19T19:07:42.562Z,7.84
2019-03-19T19:09:46.387Z,7.91
2019-03-19T19:11:50.204Z,7.93
2019-03-19T19:13:54.020Z,7.86
2019-03-19T19:15:57.796Z,7.78
2019-03-19T19:18:01.626Z,7.82
2019-03-19T19:20:05.892Z,8.00
2019-03-19T19:22:09.718Z,8.19
2019-03-19T19:24:13.537Z,8.35
2019-03-19T19:26:17.371Z,8.40
2019-03-19T19:28:21.102Z,8.44
2019-03-19T19:30:25.119Z,8.44
2019-03-19T19:32:29.947Z,8.43
2019-03-19T19:34:33.741Z,8.39
2019-03-19T19:36:38.526Z,8.27
2019-03-19T19:38:43.316Z,8.12
2019-03-19T19:40:49.064Z,8.01
2019-03-19T19:42:52.917Z,7.83
2019-03-19T19:44:56.698Z,7.65
2019-03-19T19:47:01.517Z,7.55
2019-03-19T19:49:05.362Z,7.54
2019-03-19T19:51:09.208Z,7.58
2019-03-19T19:53:13.009Z,7.73
2019-03-19T19:55:17.217Z,7.85
2019-03-19T19:57:21.110Z,7.88
2019-03-19T19:59:25.173Z,7.86
2019-03-19T20:01:28.940Z,7.86
2019-03-19T20:03:32.738Z,7.87
2019-03-19T20:05:36.580Z,7.77
2019-03-19T20:07:40.348Z,7.71
2019-03-19T20:09:45.139Z,7.68
2019-03-19T20:11:48.990Z,7.58
2019-03-19T20:13:52.780Z,7.39
2019-03-19T20:15:57.717Z,7.23
2019-03-19T20:18:01.509Z,7.15
2019-03-19T20:20:07.639Z,7.22
2019-03-19T20:22:11.479Z,7.25
2019-03-19T20:24:15.381Z,7.17
2019-03-19T20:26:19.199Z,7.14
2019-03-19T20:28:22.994Z,7.15
2019-03-19T20:30:26.982Z,7.25
2019-03-19T20:32:30.862Z,7.28
2019-03-19T20:34:34.707Z,7.39
2019-03-19T20:36:38.533Z,7.42
2019-03-19T20:38:42.297Z,7.36
2019-03-19T20:40:46.130Z,7.26
2019-03-19T20:42:50.067Z,7.09
2019-03-19T20:44:54.834Z,6.97
2019-03-19T20:46:58.654Z,6.88
2019-03-19T20:49:02.448Z,6.79
2019-03-19T20:51:06.437Z,6.73
2019-03-19T20:53:10.239Z,6.75
2019-03-19T20:55:15.062Z,6.81
2019-03-19T20:57:18.890Z,6.82
2019-03-19T20:59:22.708Z,6.87
2019-03-19T21:01:27.562Z,6.95
2019-03-19T21:03:35.801Z,6.99
2019-03-19T21:05:37.081Z,6.88
2019-03-19T21:07:41.097Z,6.87
2019-03-19T21:09:45.877Z,6.93
2019-03-19T21:11:49.708Z,6.90
2019-03-19T21:13:53.612Z,6.89
2019-03-19T21:15:57.421Z,6.81
2019-03-19T21:18:01.319Z,6.73
2019-03-19T21:20:05.824Z,6.64
2019-03-19T21:22:09.714Z,6.64
2019-03-19T21:24:13.792Z,6.61
2019-03-19T21:26:18.631Z,6.49
2019-03-19T21:28:23.404Z,6.39
2019-03-19T21:30:27.194Z,6.40
2019-03-19T21:32:32.447Z,6.46
2019-03-19T21:34:36.406Z,6.51
2019-03-19T21:36:40.250Z,6.53
2019-03-19T21:38:44.093Z,6.55
2019-03-19T21:40:49.270Z,6.59
2019-03-19T21:42:53.246Z,6.62
2019-03-19T21:44:57.022Z,6.60
2019-03-19T21:47:00.816Z,6.60
2019-03-19T21:49:04.753Z,6.49
2019-03-19T21:51:08.766Z,6.32
2019-03-19T21:53:12.520Z,6.28
2019-03-19T21:55:16.727Z,6.26
2019-03-19T21:57:20.547Z,6.13
2019-03-19T21:59:26.454Z,6.05
2019-03-19T22:01:30.308Z,6.05
2019-03-19T22:03:34.113Z,6.09
2019-03-19T22:05:37.970Z,6.14
2019-03-19T22:07:41.885Z,6.09
2019-03-19T22:09:45.727Z,6.02
2019-03-19T22:11:49.519Z,5.92
2019-03-19T22:13:54.333Z,5.82
2019-03-19T22:15:58.116Z,5.76
2019-03-19T22:18:01.959Z,5.73
2019-03-19T22:20:08.113Z,5.72
2019-03-19T22:22:11.976Z,5.60
2019-03-19T22:24:15.866Z,5.51
2019-03-19T22:26:19.589Z,5.50
2019-03-19T22:28:23.412Z,5.52
2019-03-19T22:30:27.190Z,5.41
2019-03-19T22:32:31.037Z,5.27
2019-03-19T22:34:34.838Z,5.15
2019-03-19T22:36:38.600Z,5.14
2019-03-19T22:38:42.459Z,5.20
2019-03-19T22:40:46.284Z,5.23
2019-03-19T22:42:50.073Z,5.27
2019-03-19T22:44:53.834Z,5.30
2019-03-19T22:46:57.642Z,5.28
2019-03-19T22:49:01.429Z,5.12
2019-03-19T22:51:05.385Z,4.95
2019-03-19T22:53:09.169Z,4.83
2019-03-19T22:55:13.372Z,4.77
2019-03-19T22:57:17.185Z,4.73
2019-03-19T22:59:21.018Z,4.69
2019-03-19T23:01:24.853Z,4.68
2019-03-19T23:03:28.705Z,4.70
2019-03-19T23:05:33.725Z,4.64
2019-03-19T23:07:37.534Z,4.62
2019-03-19T23:09:41.286Z,4.59
2019-03-19T23:11:45.260Z,4.55
2019-03-19T23:13:50.254Z,4.47
2019-03-19T23:15:54.043Z,4.40
2019-03-19T23:17:57.931Z,4.38
2019-03-19T23:20:01.780Z,4.34
2019-03-19T23:22:05.766Z,4.25
2019-03-19T23:24:09.581Z,4.16
2019-03-19T23:26:13.393Z,4.05
2019-03-19T23:28:19.234Z,3.94
2019-03-19T23:30:25.735Z,3.86
2019-03-19T23:32:29.576Z,3.73
2019-03-19T23:34:38.558Z,3.61
2019-03-19T23:36:38.949Z,3.56
2019-03-19T23:38:42.771Z,3.47
2019-03-19T23:40:46.631Z,3.35
2019-03-19T23:42:50.474Z,3.27
2019-03-19T23:44:54.276Z,3.20
2019-03-19T23:46:58.052Z,3.20
2019-03-19T23:49:01.892Z,3.16
2019-03-19T23:51:05.782Z,3.14
2019-03-19T23:53:10.700Z,3.08
2019-03-19T23:55:14.628Z,3.15
2019-03-19T23:57:19.499Z,3.19
2019-03-19T23:59:23.350Z,3.21
